Earl, North Carolina
Current Conditions -  °F | °C
As of 8:15 PM on Saturday 22 Nov 2014 (Local Time) from KEHO Reporting Station
Scattered Clouds Scattered Clouds  
Wind Chill: 43°   Ceiling: Unl
Heat Index: 43°   Visibility: 10mi
Dew Point: 22°   Wind: 0mph
Humidity: 44%   Direction: NA
Pressure: 30.33"   Gusts: NA
Location:  35.19°N, 81.53°W
Report Text: KEHO 230115Z AUTO 00000KT 10SM SCT040 06/M05 A3033 RMK AO2 T00601055
Loading
Personal Weather Stations






























Interactive Weather Map New forecast layout! Learn more

10-Day Weather Forecast

Advertisements
Track Severe Weather on mobile